Sierra Vista Municipal Libby Army Air Field
KFHU : now visible

Airfield :











YOU CAN JOIN US ON...

 
LOGIN :

Register | Disclaimer

   EN    FR    IT 

 









Legend :    VFR   Marginal VFR   IFR   Intensive IFR   Very Intensive IFR
Visi :
Ceiling :
>= 8 km
>= 3000ft
5 to 8 km
1000 to 3000 ft
1500m to 5 km
500 to 1000 ft
800 to 1500m
200 to 500 ft
< 800m
< 200 ft
Symbols :   Thunderstorms  Fog  Heavy snow  Heavy precipitations  Wind > 20 kt






- Airport Elevation : 4719 ft
- IATA code : FHU


KFHU - Sierra Vista Municipal Libby Army Air Field

CURRENT METAR :
  • 211558Z AUTO 07003KT 10SM CLR 24/M06 A3009 RMK AO2 SLP121 T02381063

EXPIRED METARs :
  • 211458Z AUTO 00000KT 10SM CLR 20/M06 A3008 RMK AO2 SLP119 T01961061 52011
  • 211444Z AUTO 00000KT 10SM CLR 19/M06 A3008 RMK AO2 SLP119
  • 211358Z AUTO 00000KT 10SM CLR 15/M06 A3006 RMK AO2 SLP118 T01541062

TAF TAF KFHU
Valid from the 21 at 14:00 until the 22 at 20:00 UTC


211400Z 2114/2220 19006KT 9999 SCT270 QNH3006INS
BECMG 2117/2118 22009KT 9999 BKN270 QNH3001INS
BECMG 2122/2123 23010G15KT 9999 SCT270 QNH2998INS
BECMG 2204/2205 22006KT 9999 SKC QNH3005INS TX31/2121Z TN12/2211Z
KZAB FIR / North America



MET'MAP, your aeronautical weather chart ! - Copyright ORBIFLY December 2007 - Disclaimer

ORBIFLY MET'MAP TEAM :

Programming & Development : Alexandra Zaïnal
Concept & original design : Baudouin d'Aumeries
Assistance for programming : Marc-Olivier Méhu
Technical & hardware support : Manuel Goepfert

Contact : metmap@orbifly.com




SOURCES & CREDITS :

   NOAA       Earth
Advisory